sensor_id;sensor_type;location;lat;lon;timestamp;temperature;humidity
39519;DHT22;25200;53.394;10.414;2022-09-13T00:01:16;17.30;67.10
39519;DHT22;25200;53.394;10.414;2022-09-13T00:03:42;17.30;67.10
39519;DHT22;25200;53.394;10.414;2022-09-13T00:06:10;17.30;67.00
39519;DHT22;25200;53.394;10.414;2022-09-13T00:08:36;17.30;67.20
39519;DHT22;25200;53.394;10.414;2022-09-13T00:11:01;17.30;67.20
39519;DHT22;25200;53.394;10.414;2022-09-13T00:13:28;17.30;67.10
39519;DHT22;25200;53.394;10.414;2022-09-13T00:15:53;17.30;67.30
39519;DHT22;25200;53.394;10.414;2022-09-13T00:18:19;17.30;67.10
39519;DHT22;25200;53.394;10.414;2022-09-13T00:20:45;17.20;67.10
39519;DHT22;25200;53.394;10.414;2022-09-13T00:23:11;17.20;67.10
39519;DHT22;25200;53.394;10.414;2022-09-13T00:25:37;17.20;67.10
39519;DHT22;25200;53.394;10.414;2022-09-13T00:28:04;17.20;67.50
39519;DHT22;25200;53.394;10.414;2022-09-13T00:30:30;17.20;67.20
39519;DHT22;25200;53.394;10.414;2022-09-13T00:32:56;17.10;67.30
39519;DHT22;25200;53.394;10.414;2022-09-13T00:35:22;17.10;67.20
39519;DHT22;25200;53.394;10.414;2022-09-13T00:37:48;17.10;67.20
39519;DHT22;25200;53.394;10.414;2022-09-13T00:40:14;17.10;67.10
39519;DHT22;25200;53.394;10.414;2022-09-13T00:42:40;17.10;67.40
39519;DHT22;25200;53.394;10.414;2022-09-13T00:47:54;17.10;67.40
39519;DHT22;25200;53.394;10.414;2022-09-13T00:53:08;17.10;67.50
39519;DHT22;25200;53.394;10.414;2022-09-13T00:58:32;17.10;67.60
39519;DHT22;25200;53.394;10.414;2022-09-13T01:01:00;17.10;67.30
39519;DHT22;25200;53.394;10.414;2022-09-13T01:03:29;17.10;67.50
39519;DHT22;25200;53.394;10.414;2022-09-13T01:06:17;17.00;67.60
39519;DHT22;25200;53.394;10.414;2022-09-13T01:08:48;17.10;67.60
39519;DHT22;25200;53.394;10.414;2022-09-13T01:11:23;17.00;67.50
39519;DHT22;25200;53.394;10.414;2022-09-13T01:13:53;17.10;67.40
39519;DHT22;25200;53.394;10.414;2022-09-13T01:16:19;17.00;67.50
39519;DHT22;25200;53.394;10.414;2022-09-13T01:18:44;17.00;67.60
39519;DHT22;25200;53.394;10.414;2022-09-13T01:34:00;17.00;67.70
39519;DHT22;25200;53.394;10.414;2022-09-13T01:39:24;17.00;68.00
39519;DHT22;25200;53.394;10.414;2022-09-13T01:45:16;17.00;68.40
39519;DHT22;25200;53.394;10.414;2022-09-13T01:47:50;17.00;68.30
39519;DHT22;25200;53.394;10.414;2022-09-13T01:50:40;16.90;68.00
39519;DHT22;25200;53.394;10.414;2022-09-13T01:56:02;17.00;68.30
39519;DHT22;25200;53.394;10.414;2022-09-13T02:01:39;17.00;68.40
39519;DHT22;25200;53.394;10.414;2022-09-13T02:04:14;17.00;68.40
39519;DHT22;25200;53.394;10.414;2022-09-13T02:06:51;17.00;68.40
39519;DHT22;25200;53.394;10.414;2022-09-13T02:09:23;17.00;68.20
39519;DHT22;25200;53.394;10.414;2022-09-13T02:11:55;17.00;68.30
39519;DHT22;25200;53.394;10.414;2022-09-13T02:14:37;17.00;68.20
39519;DHT22;25200;53.394;10.414;2022-09-13T02:17:11;17.00;68.40
39519;DHT22;25200;53.394;10.414;2022-09-13T02:19:56;17.00;68.40
39519;DHT22;25200;53.394;10.414;2022-09-13T02:22:32;17.00;68.40
39519;DHT22;25200;53.394;10.414;2022-09-13T02:25:04;17.00;68.30
39519;DHT22;25200;53.394;10.414;2022-09-13T02:27:33;17.00;68.80
39519;DHT22;25200;53.394;10.414;2022-09-13T02:30:10;17.00;68.80
39519;DHT22;25200;53.394;10.414;2022-09-13T02:32:40;17.00;68.70
39519;DHT22;25200;53.394;10.414;2022-09-13T02:35:23;17.00;68.60
39519;DHT22;25200;53.394;10.414;2022-09-13T02:37:56;17.00;68.90
39519;DHT22;25200;53.394;10.414;2022-09-13T02:40:27;17.00;68.70
39519;DHT22;25200;53.394;10.414;2022-09-13T02:43:04;17.00;68.80
39519;DHT22;25200;53.394;10.414;2022-09-13T02:45:52;17.00;68.80
39519;DHT22;25200;53.394;10.414;2022-09-13T02:48:45;17.00;68.80
39519;DHT22;25200;53.394;10.414;2022-09-13T02:51:28;17.00;68.80
39519;DHT22;25200;53.394;10.414;2022-09-13T02:54:11;16.90;69.10
39519;DHT22;25200;53.394;10.414;2022-09-13T02:59:35;16.90;69.10
39519;DHT22;25200;53.394;10.414;2022-09-13T03:02:07;16.90;69.20
39519;DHT22;25200;53.394;10.414;2022-09-13T03:04:34;16.90;69.10
39519;DHT22;25200;53.394;10.414;2022-09-13T03:07:01;16.90;69.20
39519;DHT22;25200;53.394;10.414;2022-09-13T03:09:30;16.90;69.20
39519;DHT22;25200;53.394;10.414;2022-09-13T03:34:59;16.70;69.80
39519;DHT22;25200;53.394;10.414;2022-09-13T03:37:40;16.70;69.50
39519;DHT22;25200;53.394;10.414;2022-09-13T03:43:18;16.70;70.20
39519;DHT22;25200;53.394;10.414;2022-09-13T03:45:54;16.70;69.80
39519;DHT22;25200;53.394;10.414;2022-09-13T03:48:21;16.70;70.30
39519;DHT22;25200;53.394;10.414;2022-09-13T03:50:48;16.70;70.80
39519;DHT22;25200;53.394;10.414;2022-09-13T03:53:25;16.70;70.00
39519;DHT22;25200;53.394;10.414;2022-09-13T03:55:51;16.70;70.00
39519;DHT22;25200;53.394;10.414;2022-09-13T03:58:18;16.70;70.00
39519;DHT22;25200;53.394;10.414;2022-09-13T04:00:44;16.70;69.90
39519;DHT22;25200;53.394;10.414;2022-09-13T04:03:11;16.70;69.90
39519;DHT22;25200;53.394;10.414;2022-09-13T04:05:37;16.70;70.90
39519;DHT22;25200;53.394;10.414;2022-09-13T04:08:04;16.70;71.10
39519;DHT22;25200;53.394;10.414;2022-09-13T04:10:31;16.70;71.00
39519;DHT22;25200;53.394;10.414;2022-09-13T04:12:58;16.70;70.80
39519;DHT22;25200;53.394;10.414;2022-09-13T04:15:25;16.70;70.00
39519;DHT22;25200;53.394;10.414;2022-09-13T04:17:51;16.70;70.20
39519;DHT22;25200;53.394;10.414;2022-09-13T04:20:17;16.70;70.20
39519;DHT22;25200;53.394;10.414;2022-09-13T04:22:43;16.70;70.00
39519;DHT22;25200;53.394;10.414;2022-09-13T04:25:14;16.70;70.00
39519;DHT22;25200;53.394;10.414;2022-09-13T04:27:40;16.80;70.10
39519;DHT22;25200;53.394;10.414;2022-09-13T04:30:06;16.80;70.20
39519;DHT22;25200;53.394;10.414;2022-09-13T04:32:32;16.80;69.80
39519;DHT22;25200;53.394;10.414;2022-09-13T04:34:58;16.80;70.10
39519;DHT22;25200;53.394;10.414;2022-09-13T04:37:23;16.80;70.00
39519;DHT22;25200;53.394;10.414;2022-09-13T04:39:49;16.80;70.20
39519;DHT22;25200;53.394;10.414;2022-09-13T04:42:14;16.80;70.10
39519;DHT22;25200;53.394;10.414;2022-09-13T04:44:40;16.80;70.00
39519;DHT22;25200;53.394;10.414;2022-09-13T04:47:07;16.80;69.90
39519;DHT22;25200;53.394;10.414;2022-09-13T04:49:33;16.80;69.70
39519;DHT22;25200;53.394;10.414;2022-09-13T04:51:58;16.80;70.00
39519;DHT22;25200;53.394;10.414;2022-09-13T04:54:24;16.80;70.40
39519;DHT22;25200;53.394;10.414;2022-09-13T04:56:50;16.80;70.10
39519;DHT22;25200;53.394;10.414;2022-09-13T04:59:15;16.80;70.30
39519;DHT22;25200;53.394;10.414;2022-09-13T05:01:41;16.80;70.10
39519;DHT22;25200;53.394;10.414;2022-09-13T05:04:07;16.90;70.00
39519;DHT22;25200;53.394;10.414;2022-09-13T05:06:33;16.90;70.00
39519;DHT22;25200;53.394;10.414;2022-09-13T05:08:59;16.90;69.80
39519;DHT22;25200;53.394;10.414;2022-09-13T05:11:27;16.90;70.00
39519;DHT22;25200;53.394;10.414;2022-09-13T05:13:55;16.90;69.70
39519;DHT22;25200;53.394;10.414;2022-09-13T05:16:23;16.90;69.60
39519;DHT22;25200;53.394;10.414;2022-09-13T05:18:49;16.90;69.90
39519;DHT22;25200;53.394;10.414;2022-09-13T05:21:15;16.90;70.00
39519;DHT22;25200;53.394;10.414;2022-09-13T05:23:40;16.90;69.70
39519;DHT22;25200;53.394;10.414;2022-09-13T05:26:06;16.90;69.80
39519;DHT22;25200;53.394;10.414;2022-09-13T05:28:33;16.90;69.70
39519;DHT22;25200;53.394;10.414;2022-09-13T05:31:08;16.90;69.60
39519;DHT22;25200;53.394;10.414;2022-09-13T05:33:36;16.90;69.90
39519;DHT22;25200;53.394;10.414;2022-09-13T05:36:03;16.90;70.10
39519;DHT22;25200;53.394;10.414;2022-09-13T05:38:29;16.90;69.90
39519;DHT22;25200;53.394;10.414;2022-09-13T05:40:57;17.00;70.20
39519;DHT22;25200;53.394;10.414;2022-09-13T05:43:24;17.00;70.10
39519;DHT22;25200;53.394;10.414;2022-09-13T05:45:50;17.00;69.90
39519;DHT22;25200;53.394;10.414;2022-09-13T05:48:16;17.00;69.80
39519;DHT22;25200;53.394;10.414;2022-09-13T05:50:42;17.00;70.10
39519;DHT22;25200;53.394;10.414;2022-09-13T05:53:07;17.00;70.10
39519;DHT22;25200;53.394;10.414;2022-09-13T05:55:33;17.00;70.00
39519;DHT22;25200;53.394;10.414;2022-09-13T05:58:00;17.00;70.20
39519;DHT22;25200;53.394;10.414;2022-09-13T06:00:27;17.00;70.10
39519;DHT22;25200;53.394;10.414;2022-09-13T06:02:52;17.00;70.00
39519;DHT22;25200;53.394;10.414;2022-09-13T06:05:18;17.00;69.90
39519;DHT22;25200;53.394;10.414;2022-09-13T06:07:43;17.00;69.90
39519;DHT22;25200;53.394;10.414;2022-09-13T06:10:10;17.00;70.50
39519;DHT22;25200;53.394;10.414;2022-09-13T06:12:36;17.10;70.10
39519;DHT22;25200;53.394;10.414;2022-09-13T06:15:02;17.00;70.10
39519;DHT22;25200;53.394;10.414;2022-09-13T06:17:28;17.00;70.00
39519;DHT22;25200;53.394;10.414;2022-09-13T06:19:54;17.10;70.00
39519;DHT22;25200;53.394;10.414;2022-09-13T06:22:21;17.10;70.00
39519;DHT22;25200;53.394;10.414;2022-09-13T06:24:47;17.10;70.10
39519;DHT22;25200;53.394;10.414;2022-09-13T06:27:12;17.10;70.00
39519;DHT22;25200;53.394;10.414;2022-09-13T06:29:38;17.20;70.10
39519;DHT22;25200;53.394;10.414;2022-09-13T06:32:04;17.20;70.10
39519;DHT22;25200;53.394;10.414;2022-09-13T06:34:29;17.20;70.00
39519;DHT22;25200;53.394;10.414;2022-09-13T06:36:55;17.20;70.20
39519;DHT22;25200;53.394;10.414;2022-09-13T06:39:21;17.30;70.10
39519;DHT22;25200;53.394;10.414;2022-09-13T06:41:46;17.30;70.30
39519;DHT22;25200;53.394;10.414;2022-09-13T06:44:12;17.30;70.00
39519;DHT22;25200;53.394;10.414;2022-09-13T06:46:38;17.40;70.00
39519;DHT22;25200;53.394;10.414;2022-09-13T06:49:05;17.40;70.20
39519;DHT22;25200;53.394;10.414;2022-09-13T06:51:32;17.40;72.70
39519;DHT22;25200;53.394;10.414;2022-09-13T06:53:58;17.50;72.20
39519;DHT22;25200;53.394;10.414;2022-09-13T06:56:29;17.60;78.10
39519;DHT22;25200;53.394;10.414;2022-09-13T06:58:58;17.70;76.40
39519;DHT22;25200;53.394;10.414;2022-09-13T07:01:27;17.70;74.30
39519;DHT22;25200;53.394;10.414;2022-09-13T07:03:58;17.80;72.80
39519;DHT22;25200;53.394;10.414;2022-09-13T07:06:27;17.80;72.60
39519;DHT22;25200;53.394;10.414;2022-09-13T07:08:54;17.90;72.40
39519;DHT22;25200;53.394;10.414;2022-09-13T07:11:22;17.90;72.30
39519;DHT22;25200;53.394;10.414;2022-09-13T07:13:56;17.90;71.70
39519;DHT22;25200;53.394;10.414;2022-09-13T07:16:25;18.00;72.10
39519;DHT22;25200;53.394;10.414;2022-09-13T07:18:55;18.00;71.50
39519;DHT22;25200;53.394;10.414;2022-09-13T07:21:22;18.00;71.00
39519;DHT22;25200;53.394;10.414;2022-09-13T07:23:48;18.10;71.50
39519;DHT22;25200;53.394;10.414;2022-09-13T07:26:14;18.10;71.50
39519;DHT22;25200;53.394;10.414;2022-09-13T07:28:41;18.10;71.20
39519;DHT22;25200;53.394;10.414;2022-09-13T07:31:10;18.10;71.10
39519;DHT22;25200;53.394;10.414;2022-09-13T07:33:38;18.20;71.10
39519;DHT22;25200;53.394;10.414;2022-09-13T07:36:05;18.20;71.20
39519;DHT22;25200;53.394;10.414;2022-09-13T07:38:38;18.20;71.30
39519;DHT22;25200;53.394;10.414;2022-09-13T07:41:05;18.30;71.10
39519;DHT22;25200;53.394;10.414;2022-09-13T07:43:34;18.40;71.30
39519;DHT22;25200;53.394;10.414;2022-09-13T07:46:11;18.40;71.10
39519;DHT22;25200;53.394;10.414;2022-09-13T07:48:39;18.50;70.80
39519;DHT22;25200;53.394;10.414;2022-09-13T07:51:11;18.50;71.00
39519;DHT22;25200;53.394;10.414;2022-09-13T07:53:38;18.50;71.10
39519;DHT22;25200;53.394;10.414;2022-09-13T07:56:15;18.50;71.00
39519;DHT22;25200;53.394;10.414;2022-09-13T07:58:42;18.60;71.10
39519;DHT22;25200;53.394;10.414;2022-09-13T08:01:17;18.60;70.80
39519;DHT22;25200;53.394;10.414;2022-09-13T08:03:44;18.60;71.10
39519;DHT22;25200;53.394;10.414;2022-09-13T08:06:14;18.70;71.10
39519;DHT22;25200;53.394;10.414;2022-09-13T08:08:40;18.70;71.10
39519;DHT22;25200;53.394;10.414;2022-09-13T08:11:06;18.80;71.70
39519;DHT22;25200;53.394;10.414;2022-09-13T08:13:32;18.80;71.30
39519;DHT22;25200;53.394;10.414;2022-09-13T08:16:02;18.80;71.60
39519;DHT22;25200;53.394;10.414;2022-09-13T08:18:29;18.80;71.80
39519;DHT22;25200;53.394;10.414;2022-09-13T08:20:58;18.90;72.80
39519;DHT22;25200;53.394;10.414;2022-09-13T08:23:25;18.90;73.50
39519;DHT22;25200;53.394;10.414;2022-09-13T08:25:51;19.00;73.90
39519;DHT22;25200;53.394;10.414;2022-09-13T08:28:18;19.00;73.00
39519;DHT22;25200;53.394;10.414;2022-09-13T08:30:46;19.10;72.90
39519;DHT22;25200;53.394;10.414;2022-09-13T08:33:13;19.20;75.40
39519;DHT22;25200;53.394;10.414;2022-09-13T08:35:39;19.20;74.60
39519;DHT22;25200;53.394;10.414;2022-09-13T08:38:06;19.30;74.00
39519;DHT22;25200;53.394;10.414;2022-09-13T08:40:39;19.40;72.60
39519;DHT22;25200;53.394;10.414;2022-09-13T08:45:51;19.50;72.00
39519;DHT22;25200;53.394;10.414;2022-09-13T08:48:22;19.60;72.00
39519;DHT22;25200;53.394;10.414;2022-09-13T08:51:01;19.60;71.90
39519;DHT22;25200;53.394;10.414;2022-09-13T08:53:30;19.60;71.90
39519;DHT22;25200;53.394;10.414;2022-09-13T08:56:21;19.60;71.60
39519;DHT22;25200;53.394;10.414;2022-09-13T09:04:36;19.50;71.70
39519;DHT22;25200;53.394;10.414;2022-09-13T09:07:23;19.60;71.70
39519;DHT22;25200;53.394;10.414;2022-09-13T09:09:54;19.50;72.00
39519;DHT22;25200;53.394;10.414;2022-09-13T09:15:25;19.50;71.70
39519;DHT22;25200;53.394;10.414;2022-09-13T09:18:01;19.50;72.10
39519;DHT22;25200;53.394;10.414;2022-09-13T09:20:40;19.60;71.60
39519;DHT22;25200;53.394;10.414;2022-09-13T09:26:24;19.80;71.50
39519;DHT22;25200;53.394;10.414;2022-09-13T09:29:15;19.90;71.30
39519;DHT22;25200;53.394;10.414;2022-09-13T09:31:43;19.90;70.90
39519;DHT22;25200;53.394;10.414;2022-09-13T09:37:15;20.00;71.20
39519;DHT22;25200;53.394;10.414;2022-09-13T09:39:43;20.10;70.70
39519;DHT22;25200;53.394;10.414;2022-09-13T09:42:19;20.10;70.60
39519;DHT22;25200;53.394;10.414;2022-09-13T09:44:49;20.30;70.80
39519;DHT22;25200;53.394;10.414;2022-09-13T09:49:50;20.50;70.50
39519;DHT22;25200;53.394;10.414;2022-09-13T09:52:52;20.60;70.40
39519;DHT22;25200;53.394;10.414;2022-09-13T09:58:04;20.70;69.90
39519;DHT22;25200;53.394;10.414;2022-09-13T10:00:37;20.70;69.60
39519;DHT22;25200;53.394;10.414;2022-09-13T10:03:20;20.80;69.50
39519;DHT22;25200;53.394;10.414;2022-09-13T10:05:48;20.90;69.30
39519;DHT22;25200;53.394;10.414;2022-09-13T10:08:29;20.90;69.50
39519;DHT22;25200;53.394;10.414;2022-09-13T10:10:56;21.10;69.10
39519;DHT22;25200;53.394;10.414;2022-09-13T10:13:25;21.00;68.70
39519;DHT22;25200;53.394;10.414;2022-09-13T10:16:00;21.10;69.00
39519;DHT22;25200;53.394;10.414;2022-09-13T10:18:32;21.10;68.70
39519;DHT22;25200;53.394;10.414;2022-09-13T10:23:48;21.30;68.80
39519;DHT22;25200;53.394;10.414;2022-09-13T10:26:25;21.40;68.90
39519;DHT22;25200;53.394;10.414;2022-09-13T10:31:18;22.00;68.60
39519;DHT22;25200;53.394;10.414;2022-09-13T10:33:57;22.30;68.30
39519;DHT22;25200;53.394;10.414;2022-09-13T10:36:28;22.50;67.70
39519;DHT22;25200;53.394;10.414;2022-09-13T10:39:12;22.60;67.10
39519;DHT22;25200;53.394;10.414;2022-09-13T10:41:42;22.60;66.40
39519;DHT22;25200;53.394;10.414;2022-09-13T10:44:31;22.50;66.10
39519;DHT22;25200;53.394;10.414;2022-09-13T10:47:02;22.40;65.30
39519;DHT22;25200;53.394;10.414;2022-09-13T10:49:49;22.40;66.10
39519;DHT22;25200;53.394;10.414;2022-09-13T10:55:27;22.40;65.40
39519;DHT22;25200;53.394;10.414;2022-09-13T11:03:38;22.60;65.40
39519;DHT22;25200;53.394;10.414;2022-09-13T11:06:10;22.70;65.20
39519;DHT22;25200;53.394;10.414;2022-09-13T11:08:59;22.80;65.10
39519;DHT22;25200;53.394;10.414;2022-09-13T11:11:39;22.90;64.10
39519;DHT22;25200;53.394;10.414;2022-09-13T11:17:20;23.10;64.80
39519;DHT22;25200;53.394;10.414;2022-09-13T11:22:39;23.40;63.80
39519;DHT22;25200;53.394;10.414;2022-09-13T11:30:41;23.50;62.80
39519;DHT22;25200;53.394;10.414;2022-09-13T11:57:50;24.70;61.30
39519;DHT22;25200;53.394;10.414;2022-09-13T12:00:00;24.80;61.10
39519;DHT22;25200;53.394;10.414;2022-09-13T12:02:41;24.90;60.60
39519;DHT22;25200;53.394;10.414;2022-09-13T12:07:41;25.10;61.50
39519;DHT22;25200;53.394;10.414;2022-09-13T12:11:09;25.20;61.10
39519;DHT22;25200;53.394;10.414;2022-09-13T12:13:15;25.30;60.60
39519;DHT22;25200;53.394;10.414;2022-09-13T12:15:43;25.20;59.20
39519;DHT22;25200;53.394;10.414;2022-09-13T12:18:12;25.10;59.50
39519;DHT22;25200;53.394;10.414;2022-09-13T12:20:47;25.00;58.90
39519;DHT22;25200;53.394;10.414;2022-09-13T12:26:30;25.00;59.80
39519;DHT22;25200;53.394;10.414;2022-09-13T12:31:46;25.00;60.20
39519;DHT22;25200;53.394;10.414;2022-09-13T12:34:25;25.10;59.40
39519;DHT22;25200;53.394;10.414;2022-09-13T12:42:59;25.60;59.70
39519;DHT22;25200;53.394;10.414;2022-09-13T12:58:59;26.10;58.90
39519;DHT22;25200;53.394;10.414;2022-09-13T13:01:29;26.20;59.00
39519;DHT22;25200;53.394;10.414;2022-09-13T13:09:27;26.30;57.50
39519;DHT22;25200;53.394;10.414;2022-09-13T13:11:56;26.30;58.00
39519;DHT22;25200;53.394;10.414;2022-09-13T13:23:34;26.50;57.80
39519;DHT22;25200;53.394;10.414;2022-09-13T13:36:28;27.10;57.60
39519;DHT22;25200;53.394;10.414;2022-09-13T13:38:58;26.90;57.00
39519;DHT22;25200;53.394;10.414;2022-09-13T13:55:00;26.00;56.50
39519;DHT22;25200;53.394;10.414;2022-09-13T13:57:34;25.80;56.50
39519;DHT22;25200;53.394;10.414;2022-09-13T14:00:27;25.60;56.90
39519;DHT22;25200;53.394;10.414;2022-09-13T14:06:01;25.80;58.40
39519;DHT22;25200;53.394;10.414;2022-09-13T14:08:53;26.00;58.40
39519;DHT22;25200;53.394;10.414;2022-09-13T14:16:50;26.10;58.60
39519;DHT22;25200;53.394;10.414;2022-09-13T14:22:14;26.60;58.50
39519;DHT22;25200;53.394;10.414;2022-09-13T14:24:48;26.90;58.10
39519;DHT22;25200;53.394;10.414;2022-09-13T14:29:46;27.20;58.00
39519;DHT22;25200;53.394;10.414;2022-09-13T14:32:16;27.20;57.70
39519;DHT22;25200;53.394;10.414;2022-09-13T14:37:53;26.80;55.60
39519;DHT22;25200;53.394;10.414;2022-09-13T14:40:25;26.50;56.10
39519;DHT22;25200;53.394;10.414;2022-09-13T14:42:53;26.40;56.00
39519;DHT22;25200;53.394;10.414;2022-09-13T14:45:33;26.30;56.40
39519;DHT22;25200;53.394;10.414;2022-09-13T14:48:31;26.20;56.50
39519;DHT22;25200;53.394;10.414;2022-09-13T14:53:53;26.00;56.30
39519;DHT22;25200;53.394;10.414;2022-09-13T14:56:40;25.90;56.50
39519;DHT22;25200;53.394;10.414;2022-09-13T14:59:13;25.80;56.20
39519;DHT22;25200;53.394;10.414;2022-09-13T15:01:40;25.60;56.10
39519;DHT22;25200;53.394;10.414;2022-09-13T15:04:06;25.50;56.30
39519;DHT22;25200;53.394;10.414;2022-09-13T15:06:40;25.30;56.00
39519;DHT22;25200;53.394;10.414;2022-09-13T15:11:58;24.90;55.90
39519;DHT22;25200;53.394;10.414;2022-09-13T15:14:33;24.70;56.20
39519;DHT22;25200;53.394;10.414;2022-09-13T15:25:03;24.10;56.80
39519;DHT22;25200;53.394;10.414;2022-09-13T15:27:46;23.90;56.20
39519;DHT22;25200;53.394;10.414;2022-09-13T15:32:45;23.60;57.40
39519;DHT22;25200;53.394;10.414;2022-09-13T15:35:23;23.50;57.10
39519;DHT22;25200;53.394;10.414;2022-09-13T15:38:01;23.40;57.10
39519;DHT22;25200;53.394;10.414;2022-09-13T15:40:28;23.20;57.50
39519;DHT22;25200;53.394;10.414;2022-09-13T15:42:55;23.10;57.30
39519;DHT22;25200;53.394;10.414;2022-09-13T15:45:21;23.00;57.20
39519;DHT22;25200;53.394;10.414;2022-09-13T15:47:49;22.90;57.80
39519;DHT22;25200;53.394;10.414;2022-09-13T15:50:33;22.80;57.50
39519;DHT22;25200;53.394;10.414;2022-09-13T15:53:01;22.60;57.60
39519;DHT22;25200;53.394;10.414;2022-09-13T15:55:27;22.50;57.80
39519;DHT22;25200;53.394;10.414;2022-09-13T15:57:55;22.40;57.80
39519;DHT22;25200;53.394;10.414;2022-09-13T16:00:25;22.30;58.00
39519;DHT22;25200;53.394;10.414;2022-09-13T16:02:52;22.30;58.00
39519;DHT22;25200;53.394;10.414;2022-09-13T16:05:18;22.20;58.10
39519;DHT22;25200;53.394;10.414;2022-09-13T16:07:44;22.10;58.00
39519;DHT22;25200;53.394;10.414;2022-09-13T16:10:14;22.10;58.10
39519;DHT22;25200;53.394;10.414;2022-09-13T16:12:40;22.00;58.30
39519;DHT22;25200;53.394;10.414;2022-09-13T16:15:07;21.90;58.30
39519;DHT22;25200;53.394;10.414;2022-09-13T16:17:33;21.90;58.50
39519;DHT22;25200;53.394;10.414;2022-09-13T16:19:58;21.80;58.40
39519;DHT22;25200;53.394;10.414;2022-09-13T16:22:24;21.70;58.50
39519;DHT22;25200;53.394;10.414;2022-09-13T16:24:49;21.70;58.60
39519;DHT22;25200;53.394;10.414;2022-09-13T16:27:17;21.70;58.70
39519;DHT22;25200;53.394;10.414;2022-09-13T16:29:44;21.60;58.90
39519;DHT22;25200;53.394;10.414;2022-09-13T16:32:09;21.60;58.80
39519;DHT22;25200;53.394;10.414;2022-09-13T16:34:35;21.60;58.70
39519;DHT22;25200;53.394;10.414;2022-09-13T16:37:01;21.50;58.70
39519;DHT22;25200;53.394;10.414;2022-09-13T16:39:26;21.50;59.00
39519;DHT22;25200;53.394;10.414;2022-09-13T16:41:52;21.40;59.10
39519;DHT22;25200;53.394;10.414;2022-09-13T16:44:18;21.40;59.10
39519;DHT22;25200;53.394;10.414;2022-09-13T16:46:43;21.40;59.20
39519;DHT22;25200;53.394;10.414;2022-09-13T16:49:09;21.30;59.40
39519;DHT22;25200;53.394;10.414;2022-09-13T16:51:35;21.30;59.20
39519;DHT22;25200;53.394;10.414;2022-09-13T16:54:02;21.20;59.50
39519;DHT22;25200;53.394;10.414;2022-09-13T16:56:28;21.10;59.30
39519;DHT22;25200;53.394;10.414;2022-09-13T16:58:55;21.10;59.30
39519;DHT22;25200;53.394;10.414;2022-09-13T17:01:28;21.10;59.40
39519;DHT22;25200;53.394;10.414;2022-09-13T17:03:54;21.00;59.50
39519;DHT22;25200;53.394;10.414;2022-09-13T17:06:21;20.90;59.40
39519;DHT22;25200;53.394;10.414;2022-09-13T17:08:50;20.90;59.50
39519;DHT22;25200;53.394;10.414;2022-09-13T17:11:19;20.80;59.50
39519;DHT22;25200;53.394;10.414;2022-09-13T17:13:45;20.80;59.50
39519;DHT22;25200;53.394;10.414;2022-09-13T17:16:22;20.70;59.60
39519;DHT22;25200;53.394;10.414;2022-09-13T17:18:48;20.70;59.70
39519;DHT22;25200;53.394;10.414;2022-09-13T17:21:13;20.60;59.70
39519;DHT22;25200;53.394;10.414;2022-09-13T17:23:40;20.60;59.80
39519;DHT22;25200;53.394;10.414;2022-09-13T17:26:06;20.50;59.80
39519;DHT22;25200;53.394;10.414;2022-09-13T17:28:32;20.40;60.30
39519;DHT22;25200;53.394;10.414;2022-09-13T17:30:59;20.40;59.90
39519;DHT22;25200;53.394;10.414;2022-09-13T17:33:26;20.30;59.90
39519;DHT22;25200;53.394;10.414;2022-09-13T17:36:05;20.30;60.00
39519;DHT22;25200;53.394;10.414;2022-09-13T17:38:36;20.20;60.10
39519;DHT22;25200;53.394;10.414;2022-09-13T17:41:14;20.10;60.20
39519;DHT22;25200;53.394;10.414;2022-09-13T17:43:41;20.10;60.30
39519;DHT22;25200;53.394;10.414;2022-09-13T17:46:10;20.00;60.20
39519;DHT22;25200;53.394;10.414;2022-09-13T17:48:36;19.90;60.20
39519;DHT22;25200;53.394;10.414;2022-09-13T17:51:07;19.90;60.40
39519;DHT22;25200;53.394;10.414;2022-09-13T17:53:45;19.80;60.50
39519;DHT22;25200;53.394;10.414;2022-09-13T17:56:18;19.70;60.60
39519;DHT22;25200;53.394;10.414;2022-09-13T17:58:45;19.70;60.60
39519;DHT22;25200;53.394;10.414;2022-09-13T18:01:12;19.60;60.70
39519;DHT22;25200;53.394;10.414;2022-09-13T18:03:37;19.60;60.80
39519;DHT22;25200;53.394;10.414;2022-09-13T18:06:05;19.50;60.90
39519;DHT22;25200;53.394;10.414;2022-09-13T18:08:33;19.50;61.00
39519;DHT22;25200;53.394;10.414;2022-09-13T18:11:07;19.40;61.00
39519;DHT22;25200;53.394;10.414;2022-09-13T18:13:34;19.40;61.10
39519;DHT22;25200;53.394;10.414;2022-09-13T18:16:05;19.30;61.10
39519;DHT22;25200;53.394;10.414;2022-09-13T18:18:34;19.30;61.20
39519;DHT22;25200;53.394;10.414;2022-09-13T18:21:01;19.30;61.30
39519;DHT22;25200;53.394;10.414;2022-09-13T18:23:27;19.20;61.40
39519;DHT22;25200;53.394;10.414;2022-09-13T18:26:14;19.10;61.40
39519;DHT22;25200;53.394;10.414;2022-09-13T18:28:40;19.10;61.50
39519;DHT22;25200;53.394;10.414;2022-09-13T18:31:14;19.00;61.60
39519;DHT22;25200;53.394;10.414;2022-09-13T18:33:42;18.90;61.70
39519;DHT22;25200;53.394;10.414;2022-09-13T18:36:15;18.90;61.70
39519;DHT22;25200;53.394;10.414;2022-09-13T18:38:43;18.90;61.80
39519;DHT22;25200;53.394;10.414;2022-09-13T18:43:40;18.80;62.00
39519;DHT22;25200;53.394;10.414;2022-09-13T18:46:08;18.70;62.00
39519;DHT22;25200;53.394;10.414;2022-09-13T18:48:38;18.70;62.10
39519;DHT22;25200;53.394;10.414;2022-09-13T18:51:04;18.60;62.10
39519;DHT22;25200;53.394;10.414;2022-09-13T18:53:33;18.60;62.20
39519;DHT22;25200;53.394;10.414;2022-09-13T18:56:04;18.50;62.20
39519;DHT22;25200;53.394;10.414;2022-09-13T18:58:31;18.50;62.30
39519;DHT22;25200;53.394;10.414;2022-09-13T19:04:09;18.40;62.40
39519;DHT22;25200;53.394;10.414;2022-09-13T19:06:40;18.40;62.50
39519;DHT22;25200;53.394;10.414;2022-09-13T19:09:07;18.30;62.50
39519;DHT22;25200;53.394;10.414;2022-09-13T19:11:52;18.30;62.60
39519;DHT22;25200;53.394;10.414;2022-09-13T19:14:20;18.20;62.60
39519;DHT22;25200;53.394;10.414;2022-09-13T19:16:47;18.20;62.70
39519;DHT22;25200;53.394;10.414;2022-09-13T19:19:13;18.10;62.80
39519;DHT22;25200;53.394;10.414;2022-09-13T19:21:39;18.10;63.00
39519;DHT22;25200;53.394;10.414;2022-09-13T19:24:05;18.10;63.30
39519;DHT22;25200;53.394;10.414;2022-09-13T19:26:34;18.10;63.20
39519;DHT22;25200;53.394;10.414;2022-09-13T19:29:03;18.10;63.30
39519;DHT22;25200;53.394;10.414;2022-09-13T19:31:35;18.10;63.30
39519;DHT22;25200;53.394;10.414;2022-09-13T19:34:02;18.10;63.20